sensor_id;sensor_type;location;lat;lon;timestamp;P1;durP1;ratioP1;P2;durP2;ratioP2
13566;SDS011;6855;48.112;11.298;2022-10-26T00:01:14;7.67;;;3.80;;
13566;SDS011;6855;48.112;11.298;2022-10-26T00:03:42;14.70;;;3.50;;
13566;SDS011;6855;48.112;11.298;2022-10-26T00:06:10;6.63;;;3.13;;
13566;SDS011;6855;48.112;11.298;2022-10-26T00:08:39;6.80;;;3.90;;
13566;SDS011;6855;48.112;11.298;2022-10-26T00:11:06;12.00;;;3.73;;
13566;SDS011;6855;48.112;11.298;2022-10-26T00:13:34;9.20;;;3.67;;
13566;SDS011;6855;48.112;11.298;2022-10-26T00:16:06;11.40;;;3.33;;
13566;SDS011;6855;48.112;11.298;2022-10-26T00:18:33;18.90;;;3.80;;
13566;SDS011;6855;48.112;11.298;2022-10-26T00:21:01;7.87;;;3.00;;
13566;SDS011;6855;48.112;11.298;2022-10-26T00:23:29;7.10;;;2.43;;
13566;SDS011;6855;48.112;11.298;2022-10-26T00:25:57;5.90;;;2.83;;
13566;SDS011;6855;48.112;11.298;2022-10-26T00:28:25;5.53;;;3.43;;
13566;SDS011;6855;48.112;11.298;2022-10-26T00:30:52;8.10;;;2.93;;
13566;SDS011;6855;48.112;11.298;2022-10-26T00:33:19;5.40;;;2.70;;
13566;SDS011;6855;48.112;11.298;2022-10-26T00:35:46;5.90;;;2.93;;
13566;SDS011;6855;48.112;11.298;2022-10-26T00:38:14;4.17;;;2.40;;
13566;SDS011;6855;48.112;11.298;2022-10-26T00:40:41;8.07;;;3.00;;
13566;SDS011;6855;48.112;11.298;2022-10-26T00:43:13;5.70;;;2.47;;
13566;SDS011;6855;48.112;11.298;2022-10-26T00:45:41;4.80;;;2.03;;
13566;SDS011;6855;48.112;11.298;2022-10-26T00:48:11;6.33;;;2.40;;
13566;SDS011;6855;48.112;11.298;2022-10-26T00:50:41;4.87;;;2.23;;
13566;SDS011;6855;48.112;11.298;2022-10-26T00:53:10;4.87;;;2.43;;
13566;SDS011;6855;48.112;11.298;2022-10-26T00:55:39;5.23;;;2.50;;
13566;SDS011;6855;48.112;11.298;2022-10-26T00:58:07;5.27;;;2.70;;
13566;SDS011;6855;48.112;11.298;2022-10-26T01:00:37;9.23;;;2.60;;
13566;SDS011;6855;48.112;11.298;2022-10-26T01:03:05;6.13;;;3.10;;
13566;SDS011;6855;48.112;11.298;2022-10-26T01:05:33;5.60;;;2.83;;
13566;SDS011;6855;48.112;11.298;2022-10-26T01:08:01;2.87;;;2.17;;
13566;SDS011;6855;48.112;11.298;2022-10-26T01:10:28;5.57;;;2.37;;
13566;SDS011;6855;48.112;11.298;2022-10-26T01:12:56;4.50;;;2.37;;
13566;SDS011;6855;48.112;11.298;2022-10-26T01:15:27;5.30;;;2.83;;
13566;SDS011;6855;48.112;11.298;2022-10-26T01:18:00;6.00;;;3.07;;
13566;SDS011;6855;48.112;11.298;2022-10-26T01:23:18;5.03;;;2.70;;
13566;SDS011;6855;48.112;11.298;2022-10-26T01:28:34;10.83;;;2.90;;
13566;SDS011;6855;48.112;11.298;2022-10-26T01:31:08;6.00;;;2.80;;
13566;SDS011;6855;48.112;11.298;2022-10-26T01:33:38;4.87;;;2.87;;
13566;SDS011;6855;48.112;11.298;2022-10-26T01:36:10;11.93;;;3.07;;
13566;SDS011;6855;48.112;11.298;2022-10-26T01:38:42;6.57;;;2.53;;
13566;SDS011;6855;48.112;11.298;2022-10-26T01:41:12;5.60;;;2.23;;
13566;SDS011;6855;48.112;11.298;2022-10-26T01:43:42;8.63;;;2.80;;
13566;SDS011;6855;48.112;11.298;2022-10-26T01:46:11;7.70;;;2.73;;
13566;SDS011;6855;48.112;11.298;2022-10-26T01:48:39;6.03;;;3.40;;
13566;SDS011;6855;48.112;11.298;2022-10-26T01:51:07;5.10;;;2.50;;
13566;SDS011;6855;48.112;11.298;2022-10-26T01:53:35;5.17;;;2.80;;
13566;SDS011;6855;48.112;11.298;2022-10-26T01:56:08;3.57;;;2.03;;
13566;SDS011;6855;48.112;11.298;2022-10-26T02:01:45;4.20;;;1.77;;
13566;SDS011;6855;48.112;11.298;2022-10-26T02:04:19;5.67;;;2.23;;
13566;SDS011;6855;48.112;11.298;2022-10-26T02:06:51;4.60;;;2.17;;
13566;SDS011;6855;48.112;11.298;2022-10-26T02:09:22;4.63;;;2.17;;
13566;SDS011;6855;48.112;11.298;2022-10-26T02:11:52;3.40;;;2.07;;
13566;SDS011;6855;48.112;11.298;2022-10-26T02:14:21;3.67;;;2.00;;
13566;SDS011;6855;48.112;11.298;2022-10-26T02:16:53;3.73;;;2.30;;
13566;SDS011;6855;48.112;11.298;2022-10-26T02:19:27;5.87;;;1.90;;
13566;SDS011;6855;48.112;11.298;2022-10-26T02:21:56;3.93;;;1.80;;
13566;SDS011;6855;48.112;11.298;2022-10-26T02:24:26;3.67;;;1.60;;
13566;SDS011;6855;48.112;11.298;2022-10-26T02:26:53;2.27;;;1.70;;
13566;SDS011;6855;48.112;11.298;2022-10-26T02:29:21;3.67;;;2.00;;
13566;SDS011;6855;48.112;11.298;2022-10-26T02:31:49;2.10;;;1.63;;
13566;SDS011;6855;48.112;11.298;2022-10-26T02:34:19;4.53;;;1.70;;
13566;SDS011;6855;48.112;11.298;2022-10-26T02:36:48;5.97;;;1.87;;
13566;SDS011;6855;48.112;11.298;2022-10-26T02:39:16;1.67;;;1.33;;
13566;SDS011;6855;48.112;11.298;2022-10-26T02:41:44;5.03;;;1.60;;
13566;SDS011;6855;48.112;11.298;2022-10-26T02:44:12;2.40;;;1.57;;
13566;SDS011;6855;48.112;11.298;2022-10-26T02:46:40;1.23;;;1.13;;
13566;SDS011;6855;48.112;11.298;2022-10-26T02:49:08;4.07;;;1.50;;
13566;SDS011;6855;48.112;11.298;2022-10-26T02:51:38;2.07;;;1.10;;
13566;SDS011;6855;48.112;11.298;2022-10-26T02:54:09;2.53;;;1.33;;
13566;SDS011;6855;48.112;11.298;2022-10-26T02:56:41;1.70;;;1.30;;
13566;SDS011;6855;48.112;11.298;2022-10-26T02:59:10;5.20;;;1.40;;
13566;SDS011;6855;48.112;11.298;2022-10-26T03:01:38;5.50;;;1.80;;
13566;SDS011;6855;48.112;11.298;2022-10-26T03:04:06;3.67;;;1.40;;
13566;SDS011;6855;48.112;11.298;2022-10-26T03:06:33;2.97;;;1.37;;
13566;SDS011;6855;48.112;11.298;2022-10-26T03:09:02;2.17;;;1.40;;
13566;SDS011;6855;48.112;11.298;2022-10-26T03:11:29;4.30;;;1.40;;
13566;SDS011;6855;48.112;11.298;2022-10-26T03:13:56;2.20;;;1.40;;
13566;SDS011;6855;48.112;11.298;2022-10-26T03:16:23;2.60;;;1.30;;
13566;SDS011;6855;48.112;11.298;2022-10-26T03:18:50;9.73;;;1.47;;
13566;SDS011;6855;48.112;11.298;2022-10-26T03:21:18;3.07;;;1.33;;
13566;SDS011;6855;48.112;11.298;2022-10-26T03:23:45;2.00;;;1.20;;
13566;SDS011;6855;48.112;11.298;2022-10-26T03:26:15;1.83;;;1.40;;
13566;SDS011;6855;48.112;11.298;2022-10-26T03:28:43;3.50;;;1.63;;
13566;SDS011;6855;48.112;11.298;2022-10-26T03:31:10;4.03;;;1.47;;
13566;SDS011;6855;48.112;11.298;2022-10-26T03:33:37;5.80;;;1.30;;
13566;SDS011;6855;48.112;11.298;2022-10-26T03:36:04;4.90;;;1.10;;
13566;SDS011;6855;48.112;11.298;2022-10-26T03:38:32;3.13;;;1.23;;
13566;SDS011;6855;48.112;11.298;2022-10-26T03:40:59;1.90;;;1.20;;
13566;SDS011;6855;48.112;11.298;2022-10-26T03:43:27;1.30;;;1.20;;
13566;SDS011;6855;48.112;11.298;2022-10-26T03:45:54;2.80;;;1.47;;
13566;SDS011;6855;48.112;11.298;2022-10-26T03:48:22;2.00;;;0.93;;
13566;SDS011;6855;48.112;11.298;2022-10-26T03:50:49;4.77;;;1.77;;
13566;SDS011;6855;48.112;11.298;2022-10-26T03:53:16;1.80;;;1.40;;
13566;SDS011;6855;48.112;11.298;2022-10-26T03:55:43;1.90;;;1.30;;
13566;SDS011;6855;48.112;11.298;2022-10-26T03:58:10;3.87;;;1.33;;
13566;SDS011;6855;48.112;11.298;2022-10-26T04:00:39;7.83;;;1.40;;
13566;SDS011;6855;48.112;11.298;2022-10-26T04:03:06;4.17;;;1.60;;
13566;SDS011;6855;48.112;11.298;2022-10-26T04:05:33;4.63;;;1.87;;
13566;SDS011;6855;48.112;11.298;2022-10-26T04:08:00;6.40;;;1.40;;
13566;SDS011;6855;48.112;11.298;2022-10-26T04:10:28;4.50;;;1.20;;
13566;SDS011;6855;48.112;11.298;2022-10-26T04:12:55;4.40;;;1.20;;
13566;SDS011;6855;48.112;11.298;2022-10-26T04:15:24;3.50;;;1.37;;
13566;SDS011;6855;48.112;11.298;2022-10-26T04:17:56;1.50;;;1.10;;
13566;SDS011;6855;48.112;11.298;2022-10-26T04:20:23;3.90;;;1.40;;
13566;SDS011;6855;48.112;11.298;2022-10-26T04:22:57;2.87;;;1.30;;
13566;SDS011;6855;48.112;11.298;2022-10-26T04:25:25;3.10;;;1.60;;
13566;SDS011;6855;48.112;11.298;2022-10-26T04:27:52;4.73;;;2.00;;
13566;SDS011;6855;48.112;11.298;2022-10-26T04:30:19;1.43;;;1.10;;
13566;SDS011;6855;48.112;11.298;2022-10-26T04:32:46;3.43;;;1.63;;
13566;SDS011;6855;48.112;11.298;2022-10-26T04:35:15;3.57;;;1.43;;
13566;SDS011;6855;48.112;11.298;2022-10-26T04:37:42;3.73;;;1.50;;
13566;SDS011;6855;48.112;11.298;2022-10-26T04:40:09;6.97;;;1.40;;
13566;SDS011;6855;48.112;11.298;2022-10-26T04:42:40;1.87;;;1.60;;
13566;SDS011;6855;48.112;11.298;2022-10-26T04:45:07;7.53;;;2.20;;
13566;SDS011;6855;48.112;11.298;2022-10-26T04:47:35;4.90;;;2.43;;
13566;SDS011;6855;48.112;11.298;2022-10-26T04:50:02;6.77;;;1.50;;
13566;SDS011;6855;48.112;11.298;2022-10-26T04:52:31;2.17;;;1.40;;
13566;SDS011;6855;48.112;11.298;2022-10-26T04:54:58;3.30;;;1.50;;
13566;SDS011;6855;48.112;11.298;2022-10-26T04:57:26;5.87;;;1.67;;
13566;SDS011;6855;48.112;11.298;2022-10-26T04:59:53;5.30;;;1.20;;
13566;SDS011;6855;48.112;11.298;2022-10-26T05:02:20;4.60;;;1.23;;
13566;SDS011;6855;48.112;11.298;2022-10-26T05:04:47;5.13;;;1.43;;
13566;SDS011;6855;48.112;11.298;2022-10-26T05:07:14;4.13;;;1.40;;
13566;SDS011;6855;48.112;11.298;2022-10-26T05:09:43;2.13;;;1.00;;
13566;SDS011;6855;48.112;11.298;2022-10-26T05:12:10;3.80;;;0.93;;
13566;SDS011;6855;48.112;11.298;2022-10-26T05:14:37;3.53;;;1.43;;
13566;SDS011;6855;48.112;11.298;2022-10-26T05:17:04;1.63;;;1.00;;
13566;SDS011;6855;48.112;11.298;2022-10-26T05:19:31;3.40;;;1.13;;
13566;SDS011;6855;48.112;11.298;2022-10-26T05:21:59;3.37;;;1.10;;
13566;SDS011;6855;48.112;11.298;2022-10-26T05:24:26;2.70;;;0.90;;
13566;SDS011;6855;48.112;11.298;2022-10-26T05:26:54;2.70;;;1.43;;
13566;SDS011;6855;48.112;11.298;2022-10-26T05:29:21;3.37;;;1.50;;
13566;SDS011;6855;48.112;11.298;2022-10-26T05:31:49;2.10;;;1.40;;
13566;SDS011;6855;48.112;11.298;2022-10-26T05:34:16;3.27;;;1.17;;
13566;SDS011;6855;48.112;11.298;2022-10-26T05:36:43;11.73;;;1.50;;
13566;SDS011;6855;48.112;11.298;2022-10-26T05:39:10;6.47;;;1.63;;
13566;SDS011;6855;48.112;11.298;2022-10-26T05:41:37;5.27;;;1.97;;
13566;SDS011;6855;48.112;11.298;2022-10-26T05:44:06;3.27;;;1.43;;
13566;SDS011;6855;48.112;11.298;2022-10-26T05:46:33;6.70;;;1.40;;
13566;SDS011;6855;48.112;11.298;2022-10-26T05:49:00;11.17;;;1.80;;
13566;SDS011;6855;48.112;11.298;2022-10-26T05:51:27;6.73;;;2.53;;
13566;SDS011;6855;48.112;11.298;2022-10-26T05:53:54;7.30;;;2.67;;
13566;SDS011;6855;48.112;11.298;2022-10-26T05:56:31;6.93;;;2.10;;
13566;SDS011;6855;48.112;11.298;2022-10-26T05:58:59;6.10;;;2.50;;
13566;SDS011;6855;48.112;11.298;2022-10-26T06:01:30;10.60;;;2.10;;
13566;SDS011;6855;48.112;11.298;2022-10-26T06:04:04;4.30;;;1.67;;
13566;SDS011;6855;48.112;11.298;2022-10-26T06:06:36;3.00;;;1.53;;
13566;SDS011;6855;48.112;11.298;2022-10-26T06:09:05;6.43;;;1.60;;
13566;SDS011;6855;48.112;11.298;2022-10-26T06:11:32;7.53;;;1.50;;
13566;SDS011;6855;48.112;11.298;2022-10-26T06:13:59;2.87;;;1.53;;
13566;SDS011;6855;48.112;11.298;2022-10-26T06:16:31;5.30;;;1.87;;
13566;SDS011;6855;48.112;11.298;2022-10-26T06:19:03;6.00;;;1.37;;
13566;SDS011;6855;48.112;11.298;2022-10-26T06:21:39;5.73;;;1.57;;
13566;SDS011;6855;48.112;11.298;2022-10-26T06:24:11;3.20;;;1.53;;
13566;SDS011;6855;48.112;11.298;2022-10-26T06:26:41;7.10;;;1.77;;
13566;SDS011;6855;48.112;11.298;2022-10-26T06:29:14;6.20;;;1.80;;
13566;SDS011;6855;48.112;11.298;2022-10-26T06:31:45;3.00;;;1.53;;
13566;SDS011;6855;48.112;11.298;2022-10-26T06:34:14;4.67;;;1.80;;
13566;SDS011;6855;48.112;11.298;2022-10-26T06:36:45;6.43;;;1.67;;
13566;SDS011;6855;48.112;11.298;2022-10-26T06:39:13;2.37;;;1.20;;
13566;SDS011;6855;48.112;11.298;2022-10-26T06:41:40;5.93;;;1.37;;
13566;SDS011;6855;48.112;11.298;2022-10-26T06:44:08;2.43;;;1.00;;
13566;SDS011;6855;48.112;11.298;2022-10-26T06:46:38;4.73;;;1.13;;
13566;SDS011;6855;48.112;11.298;2022-10-26T06:49:12;5.00;;;1.10;;
13566;SDS011;6855;48.112;11.298;2022-10-26T06:51:40;3.73;;;1.43;;
13566;SDS011;6855;48.112;11.298;2022-10-26T06:54:11;1.77;;;1.20;;
13566;SDS011;6855;48.112;11.298;2022-10-26T06:56:40;3.83;;;1.20;;
13566;SDS011;6855;48.112;11.298;2022-10-26T06:59:08;4.27;;;1.73;;
13566;SDS011;6855;48.112;11.298;2022-10-26T07:01:39;4.27;;;1.60;;
13566;SDS011;6855;48.112;11.298;2022-10-26T07:04:06;2.93;;;1.20;;
13566;SDS011;6855;48.112;11.298;2022-10-26T07:06:35;2.70;;;1.13;;
13566;SDS011;6855;48.112;11.298;2022-10-26T07:09:02;1.90;;;1.10;;
13566;SDS011;6855;48.112;11.298;2022-10-26T07:11:29;2.37;;;1.10;;
13566;SDS011;6855;48.112;11.298;2022-10-26T07:13:56;3.60;;;1.30;;
13566;SDS011;6855;48.112;11.298;2022-10-26T07:16:23;1.27;;;1.00;;
13566;SDS011;6855;48.112;11.298;2022-10-26T07:18:51;4.53;;;1.17;;
13566;SDS011;6855;48.112;11.298;2022-10-26T07:21:19;3.80;;;1.10;;
13566;SDS011;6855;48.112;11.298;2022-10-26T07:23:47;6.10;;;1.50;;
13566;SDS011;6855;48.112;11.298;2022-10-26T07:26:14;2.50;;;1.20;;
13566;SDS011;6855;48.112;11.298;2022-10-26T07:28:42;2.83;;;1.60;;
13566;SDS011;6855;48.112;11.298;2022-10-26T07:31:09;2.57;;;1.27;;
13566;SDS011;6855;48.112;11.298;2022-10-26T07:33:36;4.97;;;3.43;;
13566;SDS011;6855;48.112;11.298;2022-10-26T07:36:03;37.47;;;17.37;;
13566;SDS011;6855;48.112;11.298;2022-10-26T07:38:32;56.37;;;23.97;;
13566;SDS011;6855;48.112;11.298;2022-10-26T07:41:01;17.83;;;8.90;;
13566;SDS011;6855;48.112;11.298;2022-10-26T07:43:29;11.00;;;6.30;;
13566;SDS011;6855;48.112;11.298;2022-10-26T07:45:56;6.93;;;3.63;;
13566;SDS011;6855;48.112;11.298;2022-10-26T07:48:23;14.27;;;5.50;;
13566;SDS011;6855;48.112;11.298;2022-10-26T07:50:50;13.23;;;7.77;;
13566;SDS011;6855;48.112;11.298;2022-10-26T07:53:17;11.03;;;7.53;;
13566;SDS011;6855;48.112;11.298;2022-10-26T07:55:51;4.80;;;3.33;;
13566;SDS011;6855;48.112;11.298;2022-10-26T07:58:19;2.53;;;1.77;;
13566;SDS011;6855;48.112;11.298;2022-10-26T08:00:48;4.20;;;1.50;;
13566;SDS011;6855;48.112;11.298;2022-10-26T08:03:15;3.37;;;1.10;;
13566;SDS011;6855;48.112;11.298;2022-10-26T08:05:44;4.50;;;1.20;;
13566;SDS011;6855;48.112;11.298;2022-10-26T08:08:11;5.33;;;1.40;;
13566;SDS011;6855;48.112;11.298;2022-10-26T08:10:41;1.97;;;1.60;;
13566;SDS011;6855;48.112;11.298;2022-10-26T08:13:08;3.30;;;1.10;;
13566;SDS011;6855;48.112;11.298;2022-10-26T08:15:37;2.63;;;1.10;;
13566;SDS011;6855;48.112;11.298;2022-10-26T08:18:04;2.90;;;1.30;;
13566;SDS011;6855;48.112;11.298;2022-10-26T08:20:31;2.93;;;1.40;;
13566;SDS011;6855;48.112;11.298;2022-10-26T08:22:59;2.83;;;1.27;;
13566;SDS011;6855;48.112;11.298;2022-10-26T08:25:28;2.47;;;1.10;;
13566;SDS011;6855;48.112;11.298;2022-10-26T08:27:59;1.60;;;1.00;;
13566;SDS011;6855;48.112;11.298;2022-10-26T08:30:26;4.70;;;1.30;;
13566;SDS011;6855;48.112;11.298;2022-10-26T08:32:58;3.50;;;1.07;;
13566;SDS011;6855;48.112;11.298;2022-10-26T08:35:25;4.97;;;1.50;;
13566;SDS011;6855;48.112;11.298;2022-10-26T08:37:52;4.87;;;1.10;;
13566;SDS011;6855;48.112;11.298;2022-10-26T08:40:21;2.30;;;1.00;;
13566;SDS011;6855;48.112;11.298;2022-10-26T08:42:51;1.27;;;1.03;;
13566;SDS011;6855;48.112;11.298;2022-10-26T08:45:22;1.13;;;0.90;;
13566;SDS011;6855;48.112;11.298;2022-10-26T08:47:51;1.67;;;0.90;;
13566;SDS011;6855;48.112;11.298;2022-10-26T08:50:23;2.50;;;1.17;;
13566;SDS011;6855;48.112;11.298;2022-10-26T08:52:51;6.80;;;1.07;;
13566;SDS011;6855;48.112;11.298;2022-10-26T08:55:26;1.13;;;1.00;;
13566;SDS011;6855;48.112;11.298;2022-10-26T08:57:54;2.97;;;1.30;;
13566;SDS011;6855;48.112;11.298;2022-10-26T09:00:22;8.17;;;1.40;;
13566;SDS011;6855;48.112;11.298;2022-10-26T09:02:51;1.77;;;0.90;;
13566;SDS011;6855;48.112;11.298;2022-10-26T09:05:21;3.60;;;1.10;;
13566;SDS011;6855;48.112;11.298;2022-10-26T09:07:49;2.10;;;1.20;;
13566;SDS011;6855;48.112;11.298;2022-10-26T09:10:23;3.23;;;1.33;;
13566;SDS011;6855;48.112;11.298;2022-10-26T09:12:53;2.90;;;1.00;;
13566;SDS011;6855;48.112;11.298;2022-10-26T09:15:23;1.63;;;1.10;;
13566;SDS011;6855;48.112;11.298;2022-10-26T09:17:55;3.33;;;1.20;;
13566;SDS011;6855;48.112;11.298;2022-10-26T09:20:30;3.80;;;1.10;;
13566;SDS011;6855;48.112;11.298;2022-10-26T09:23:04;6.37;;;0.93;;
13566;SDS011;6855;48.112;11.298;2022-10-26T09:25:34;1.77;;;1.00;;
13566;SDS011;6855;48.112;11.298;2022-10-26T09:28:04;1.50;;;0.87;;
13566;SDS011;6855;48.112;11.298;2022-10-26T09:30:32;1.40;;;1.10;;
13566;SDS011;6855;48.112;11.298;2022-10-26T09:33:01;2.50;;;1.23;;
13566;SDS011;6855;48.112;11.298;2022-10-26T09:35:32;2.10;;;1.03;;
13566;SDS011;6855;48.112;11.298;2022-10-26T09:38:04;5.60;;;1.17;;
13566;SDS011;6855;48.112;11.298;2022-10-26T09:40:35;7.77;;;0.90;;
13566;SDS011;6855;48.112;11.298;2022-10-26T09:43:05;2.17;;;0.97;;
13566;SDS011;6855;48.112;11.298;2022-10-26T09:45:37;5.30;;;1.40;;
13566;SDS011;6855;48.112;11.298;2022-10-26T09:48:06;4.70;;;1.13;;
13566;SDS011;6855;48.112;11.298;2022-10-26T09:50:39;4.97;;;1.10;;
13566;SDS011;6855;48.112;11.298;2022-10-26T09:53:08;2.10;;;1.10;;
13566;SDS011;6855;48.112;11.298;2022-10-26T09:55:38;3.72;;;1.13;;
13566;SDS011;6855;48.112;11.298;2022-10-26T09:58:08;2.10;;;1.00;;
13566;SDS011;6855;48.112;11.298;2022-10-26T10:00:38;3.13;;;1.13;;
13566;SDS011;6855;48.112;11.298;2022-10-26T10:03:16;3.03;;;1.30;;
13566;SDS011;6855;48.112;11.298;2022-10-26T10:05:45;4.40;;;1.40;;
13566;SDS011;6855;48.112;11.298;2022-10-26T10:08:16;3.10;;;1.53;;
13566;SDS011;6855;48.112;11.298;2022-10-26T10:10:54;4.73;;;1.43;;
13566;SDS011;6855;48.112;11.298;2022-10-26T10:13:22;1.67;;;1.17;;
13566;SDS011;6855;48.112;11.298;2022-10-26T10:15:50;5.00;;;1.40;;
13566;SDS011;6855;48.112;11.298;2022-10-26T10:18:18;4.60;;;1.23;;
13566;SDS011;6855;48.112;11.298;2022-10-26T10:20:51;5.47;;;1.33;;
13566;SDS011;6855;48.112;11.298;2022-10-26T10:23:27;4.10;;;1.50;;
13566;SDS011;6855;48.112;11.298;2022-10-26T10:26:01;4.43;;;1.53;;
13566;SDS011;6855;48.112;11.298;2022-10-26T10:28:29;4.53;;;1.37;;
13566;SDS011;6855;48.112;11.298;2022-10-26T10:30:57;3.53;;;1.63;;
13566;SDS011;6855;48.112;11.298;2022-10-26T10:33:32;10.50;;;1.60;;
13566;SDS011;6855;48.112;11.298;2022-10-26T10:36:01;1.43;;;1.00;;
13566;SDS011;6855;48.112;11.298;2022-10-26T10:38:29;1.77;;;1.30;;
13566;SDS011;6855;48.112;11.298;2022-10-26T10:41:02;6.33;;;1.60;;
13566;SDS011;6855;48.112;11.298;2022-10-26T10:43:30;5.50;;;1.30;;
13566;SDS011;6855;48.112;11.298;2022-10-26T10:45:57;3.30;;;1.20;;
13566;SDS011;6855;48.112;11.298;2022-10-26T10:48:25;2.20;;;1.30;;
13566;SDS011;6855;48.112;11.298;2022-10-26T10:50:54;2.50;;;1.30;;
13566;SDS011;6855;48.112;11.298;2022-10-26T10:53:24;2.20;;;0.90;;
13566;SDS011;6855;48.112;11.298;2022-10-26T10:55:55;5.43;;;1.80;;
13566;SDS011;6855;48.112;11.298;2022-10-26T10:58:28;4.03;;;1.33;;
13566;SDS011;6855;48.112;11.298;2022-10-26T11:00:57;3.67;;;1.47;;
13566;SDS011;6855;48.112;11.298;2022-10-26T11:03:30;2.70;;;1.20;;
13566;SDS011;6855;48.112;11.298;2022-10-26T11:06:05;4.70;;;1.90;;
13566;SDS011;6855;48.112;11.298;2022-10-26T11:08:38;2.73;;;1.23;;
13566;SDS011;6855;48.112;11.298;2022-10-26T11:11:09;2.37;;;1.30;;
13566;SDS011;6855;48.112;11.298;2022-10-26T11:13:38;4.33;;;1.40;;
13566;SDS011;6855;48.112;11.298;2022-10-26T11:16:10;5.80;;;2.20;;
13566;SDS011;6855;48.112;11.298;2022-10-26T11:18:39;2.90;;;1.60;;
13566;SDS011;6855;48.112;11.298;2022-10-26T11:21:12;13.03;;;1.80;;
13566;SDS011;6855;48.112;11.298;2022-10-26T11:23:43;6.73;;;2.63;;
13566;SDS011;6855;48.112;11.298;2022-10-26T11:26:12;8.57;;;1.70;;
13566;SDS011;6855;48.112;11.298;2022-10-26T11:28:44;3.23;;;2.07;;
13566;SDS011;6855;48.112;11.298;2022-10-26T11:31:15;7.03;;;1.60;;
13566;SDS011;6855;48.112;11.298;2022-10-26T11:33:45;7.23;;;1.70;;
13566;SDS011;6855;48.112;11.298;2022-10-26T11:36:14;5.77;;;2.23;;
13566;SDS011;6855;48.112;11.298;2022-10-26T11:38:45;5.63;;;2.10;;
13566;SDS011;6855;48.112;11.298;2022-10-26T11:41:17;7.60;;;1.77;;
13566;SDS011;6855;48.112;11.298;2022-10-26T11:43:46;3.07;;;1.50;;
13566;SDS011;6855;48.112;11.298;2022-10-26T11:46:15;7.53;;;2.80;;
13566;SDS011;6855;48.112;11.298;2022-10-26T11:48:43;9.57;;;1.90;;
13566;SDS011;6855;48.112;11.298;2022-10-26T11:51:15;3.63;;;1.87;;
13566;SDS011;6855;48.112;11.298;2022-10-26T11:53:44;5.30;;;1.73;;
13566;SDS011;6855;48.112;11.298;2022-10-26T11:56:15;3.80;;;1.90;;
13566;SDS011;6855;48.112;11.298;2022-10-26T11:58:45;15.30;;;2.40;;
13566;SDS011;6855;48.112;11.298;2022-10-26T12:01:12;9.73;;;1.97;;
13566;SDS011;6855;48.112;11.298;2022-10-26T12:03:42;3.57;;;1.90;;
13566;SDS011;6855;48.112;11.298;2022-10-26T12:06:10;6.93;;;1.83;;
13566;SDS011;6855;48.112;11.298;2022-10-26T12:08:39;11.40;;;1.97;;
13566;SDS011;6855;48.112;11.298;2022-10-26T12:11:08;5.90;;;1.53;;
13566;SDS011;6855;48.112;11.298;2022-10-26T12:13:39;5.43;;;2.20;;
13566;SDS011;6855;48.112;11.298;2022-10-26T12:16:09;8.50;;;2.30;;
13566;SDS011;6855;48.112;11.298;2022-10-26T12:18:40;4.67;;;1.93;;
13566;SDS011;6855;48.112;11.298;2022-10-26T12:21:09;13.90;;;2.13;;
13566;SDS011;6855;48.112;11.298;2022-10-26T12:23:37;6.13;;;1.50;;
13566;SDS011;6855;48.112;11.298;2022-10-26T12:31:49;13.70;;;1.80;;
13566;SDS011;6855;48.112;11.298;2022-10-26T12:34:21;11.07;;;2.20;;
13566;SDS011;6855;48.112;11.298;2022-10-26T12:36:49;7.40;;;2.23;;
13566;SDS011;6855;48.112;11.298;2022-10-26T12:39:36;5.03;;;1.80;;
13566;SDS011;6855;48.112;11.298;2022-10-26T12:42:27;6.10;;;1.60;;
13566;SDS011;6855;48.112;11.298;2022-10-26T12:45:06;13.30;;;2.70;;
13566;SDS011;6855;48.112;11.298;2022-10-26T12:50:26;7.73;;;2.20;;
13566;SDS011;6855;48.112;11.298;2022-10-26T12:52:54;5.50;;;1.80;;
13566;SDS011;6855;48.112;11.298;2022-10-26T12:55:32;10.43;;;2.37;;
13566;SDS011;6855;48.112;11.298;2022-10-26T12:58:07;4.33;;;1.57;;
13566;SDS011;6855;48.112;11.298;2022-10-26T13:00:41;5.33;;;1.47;;
13566;SDS011;6855;48.112;11.298;2022-10-26T13:03:13;7.23;;;2.13;;
13566;SDS011;6855;48.112;11.298;2022-10-26T13:08:38;6.67;;;2.00;;
13566;SDS011;6855;48.112;11.298;2022-10-26T13:11:11;8.50;;;1.80;;
13566;SDS011;6855;48.112;11.298;2022-10-26T13:13:39;6.73;;;2.43;;
13566;SDS011;6855;48.112;11.298;2022-10-26T13:16:09;3.43;;;1.90;;
13566;SDS011;6855;48.112;11.298;2022-10-26T13:18:39;5.77;;;1.97;;
13566;SDS011;6855;48.112;11.298;2022-10-26T13:21:07;6.03;;;2.03;;
13566;SDS011;6855;48.112;11.298;2022-10-26T13:23:38;5.00;;;1.60;;
13566;SDS011;6855;48.112;11.298;2022-10-26T13:26:07;10.27;;;1.83;;
13566;SDS011;6855;48.112;11.298;2022-10-26T13:28:43;3.70;;;1.60;;
13566;SDS011;6855;48.112;11.298;2022-10-26T13:31:12;13.77;;;1.97;;
13566;SDS011;6855;48.112;11.298;2022-10-26T13:33:40;4.63;;;2.03;;
13566;SDS011;6855;48.112;11.298;2022-10-26T13:36:12;8.70;;;2.13;;
13566;SDS011;6855;48.112;11.298;2022-10-26T13:38:42;4.83;;;1.63;;
13566;SDS011;6855;48.112;11.298;2022-10-26T13:41:21;7.87;;;2.37;;
13566;SDS011;6855;48.112;11.298;2022-10-26T13:43:52;13.23;;;2.30;;
13566;SDS011;6855;48.112;11.298;2022-10-26T13:46:25;13.27;;;2.10;;
13566;SDS011;6855;48.112;11.298;2022-10-26T13:48:53;9.53;;;2.03;;
13566;SDS011;6855;48.112;11.298;2022-10-26T13:51:23;7.70;;;1.90;;
13566;SDS011;6855;48.112;11.298;2022-10-26T13:53:53;15.73;;;2.20;;
13566;SDS011;6855;48.112;11.298;2022-10-26T13:56:24;8.67;;;1.93;;
13566;SDS011;6855;48.112;11.298;2022-10-26T13:58:54;17.17;;;2.00;;
13566;SDS011;6855;48.112;11.298;2022-10-26T14:01:24;10.00;;;1.87;;
13566;SDS011;6855;48.112;11.298;2022-10-26T14:03:52;11.33;;;1.50;;
13566;SDS011;6855;48.112;11.298;2022-10-26T14:06:21;7.70;;;1.77;;
13566;SDS011;6855;48.112;11.298;2022-10-26T14:08:50;9.80;;;2.73;;
13566;SDS011;6855;48.112;11.298;2022-10-26T14:11:20;8.53;;;1.90;;
13566;SDS011;6855;48.112;11.298;2022-10-26T14:13:49;3.87;;;1.90;;
13566;SDS011;6855;48.112;11.298;2022-10-26T14:16:17;5.77;;;1.70;;
13566;SDS011;6855;48.112;11.298;2022-10-26T14:18:45;7.27;;;2.43;;
13566;SDS011;6855;48.112;11.298;2022-10-26T14:21:13;9.63;;;1.97;;
13566;SDS011;6855;48.112;11.298;2022-10-26T14:23:44;14.13;;;2.30;;
13566;SDS011;6855;48.112;11.298;2022-10-26T14:26:17;4.03;;;1.57;;
13566;SDS011;6855;48.112;11.298;2022-10-26T14:28:48;9.40;;;2.60;;
13566;SDS011;6855;48.112;11.298;2022-10-26T14:31:20;2.73;;;1.37;;
13566;SDS011;6855;48.112;11.298;2022-10-26T14:33:48;6.33;;;1.87;;
13566;SDS011;6855;48.112;11.298;2022-10-26T14:36:15;7.20;;;1.97;;
13566;SDS011;6855;48.112;11.298;2022-10-26T14:38:44;4.30;;;2.27;;
13566;SDS011;6855;48.112;11.298;2022-10-26T14:41:12;7.67;;;1.83;;
13566;SDS011;6855;48.112;11.298;2022-10-26T14:43:41;3.93;;;1.90;;
13566;SDS011;6855;48.112;11.298;2022-10-26T14:46:12;5.23;;;1.70;;
13566;SDS011;6855;48.112;11.298;2022-10-26T14:48:41;9.10;;;2.70;;
13566;SDS011;6855;48.112;11.298;2022-10-26T14:51:16;5.20;;;1.93;;
13566;SDS011;6855;48.112;11.298;2022-10-26T14:53:46;5.80;;;1.80;;
13566;SDS011;6855;48.112;11.298;2022-10-26T14:56:19;12.07;;;1.90;;
13566;SDS011;6855;48.112;11.298;2022-10-26T14:58:47;6.27;;;1.83;;
13566;SDS011;6855;48.112;11.298;2022-10-26T15:03:59;9.23;;;1.60;;
13566;SDS011;6855;48.112;11.298;2022-10-26T15:06:34;15.50;;;2.37;;
13566;SDS011;6855;48.112;11.298;2022-10-26T15:09:04;7.07;;;2.03;;
13566;SDS011;6855;48.112;11.298;2022-10-26T15:11:32;8.17;;;2.13;;
13566;SDS011;6855;48.112;11.298;2022-10-26T15:13:59;4.60;;;2.10;;
13566;SDS011;6855;48.112;11.298;2022-10-26T15:16:27;5.90;;;1.80;;
13566;SDS011;6855;48.112;11.298;2022-10-26T15:18:56;8.80;;;2.70;;
13566;SDS011;6855;48.112;11.298;2022-10-26T15:21:26;6.63;;;2.20;;